createdAt,value
2022-11-14T00:02:44.020Z,102034.34
2022-11-14T00:05:31.826Z,102036.28
2022-11-14T00:08:21.525Z,102030.22
2022-11-14T00:11:09.546Z,102022.63
2022-11-14T00:13:57.336Z,102029.13
2022-11-14T00:16:46.339Z,102021.38
2022-11-14T00:19:34.135Z,102022.38
2022-11-14T00:22:21.895Z,102019.44
2022-11-14T00:25:11.026Z,102010.25
2022-11-14T00:27:59.558Z,102019.84
2022-11-14T00:30:49.030Z,102008.72
2022-11-14T00:33:38.736Z,102018.31
2022-11-14T00:36:26.590Z,102007.28
2022-11-14T00:39:15.207Z,102011.66
2022-11-14T00:42:02.804Z,102003.19
2022-11-14T00:44:50.360Z,101993.78
2022-11-14T00:47:37.902Z,101991.50
2022-11-14T00:50:26.771Z,101991.75
2022-11-14T00:53:15.128Z,101983.22
2022-11-14T00:56:02.792Z,101973.94
2022-11-14T00:58:50.516Z,101976.63
2022-11-14T01:01:38.070Z,101968.78
2022-11-14T01:04:25.789Z,101976.72
2022-11-14T01:07:14.892Z,101972.50
2022-11-14T01:10:02.787Z,101971.91
2022-11-14T01:12:50.751Z,101959.72
2022-11-14T01:15:41.142Z,101954.63
2022-11-14T01:18:29.447Z,101957.22
2022-11-14T01:21:17.628Z,101946.72
2022-11-14T01:24:07.958Z,101956.25
2022-11-14T01:26:56.981Z,101951.16
2022-11-14T01:29:44.856Z,101947.66
2022-11-14T01:32:32.516Z,101952.13
2022-11-14T01:35:20.176Z,101943.44
2022-11-14T01:38:08.396Z,101947.66
2022-11-14T01:40:57.350Z,101940.59
2022-11-14T01:43:45.382Z,101934.59
2022-11-14T01:46:37.631Z,101933.84
2022-11-14T01:49:32.686Z,101919.06
2022-11-14T01:52:22.887Z,101919.06
2022-11-14T01:55:11.856Z,101918.22
2022-11-14T01:58:01.678Z,101919.97
2022-11-14T02:00:49.663Z,101911.28
2022-11-14T02:03:40.950Z,101899.28
2022-11-14T02:06:32.242Z,101897.66
2022-11-14T02:09:19.854Z,101886.38
2022-11-14T02:12:10.915Z,101880.22
2022-11-14T02:15:01.601Z,101885.53
2022-11-14T02:17:49.422Z,101886.38
2022-11-14T02:20:43.144Z,101875.09
2022-11-14T02:23:33.095Z,101871.72
2022-11-14T02:26:22.748Z,101868.34
2022-11-14T02:29:12.503Z,101864.81
2022-11-14T02:32:00.065Z,101862.31
2022-11-14T02:34:47.718Z,101849.28
2022-11-14T02:37:36.902Z,101847.59
2022-11-14T02:40:24.736Z,101860.78
2022-11-14T02:43:12.581Z,101857.41
2022-11-14T02:46:05.405Z,101840.78
2022-11-14T02:48:53.537Z,101840.78
2022-11-14T02:51:41.849Z,101841.88
2022-11-14T02:54:30.795Z,101844.28
2022-11-14T02:57:18.630Z,101833.88
2022-11-14T03:00:13.347Z,101832.34
2022-11-14T03:03:02.154Z,101827.97
2022-11-14T03:05:52.108Z,101817.53
2022-11-14T03:08:39.971Z,101811.38
2022-11-14T03:11:28.994Z,101816.59
2022-11-14T03:14:16.826Z,101815.00
2022-11-14T03:17:04.476Z,101809.03
2022-11-14T03:19:52.850Z,101802.81
2022-11-14T03:22:40.394Z,101800.13
2022-11-14T03:25:27.995Z,101795.84
2022-11-14T03:28:16.934Z,101790.78
2022-11-14T03:31:05.535Z,101790.78
2022-11-14T03:33:53.120Z,101776.06
2022-11-14T03:36:40.670Z,101784.88
2022-11-14T03:39:28.734Z,101782.25
2022-11-14T03:42:16.420Z,101778.84
2022-11-14T03:45:06.064Z,101776.25
2022-11-14T03:47:56.333Z,101768.25
2022-11-14T03:50:45.644Z,101757.03
2022-11-14T03:53:33.499Z,101758.72
2022-11-14T03:56:21.230Z,101769.16
2022-11-14T03:59:08.840Z,101763.09
2022-11-14T04:01:57.758Z,101764.72
2022-11-14T04:04:45.327Z,101764.97
2022-11-14T04:07:32.972Z,101759.56
2022-11-14T04:10:21.080Z,101757.88
2022-11-14T04:13:09.390Z,101756.91
2022-11-14T04:15:58.414Z,101751.75
2022-11-14T04:18:47.370Z,101755.44
2022-11-14T04:21:35.218Z,101751.94
2022-11-14T04:24:23.102Z,101745.88
2022-11-14T04:27:10.877Z,101734.41
2022-11-14T04:29:58.648Z,101737.94
2022-11-14T04:32:48.357Z,101734.59
2022-11-14T04:35:37.342Z,101731.13
2022-11-14T04:38:25.196Z,101729.44
2022-11-14T04:41:13.368Z,101732.91
2022-11-14T04:44:01.174Z,101724.16
2022-11-14T04:46:48.872Z,101719.97
2022-11-14T04:49:37.075Z,101719.19
2022-11-14T04:52:25.991Z,101724.50
2022-11-14T04:55:13.584Z,101721.91
2022-11-14T04:58:02.519Z,101712.28
2022-11-14T05:00:49.983Z,101712.41
2022-11-14T05:03:38.170Z,101710.78
2022-11-14T05:06:25.671Z,101704.63
2022-11-14T05:09:14.664Z,101709.25
2022-11-14T05:12:02.373Z,101708.28
2022-11-14T05:14:49.869Z,101699.69
2022-11-14T05:17:37.331Z,101703.13
2022-11-14T05:20:24.870Z,101692.19
2022-11-14T05:23:20.606Z,101687.16
2022-11-14T05:26:11.746Z,101688.06
2022-11-14T05:28:59.362Z,101687.22
2022-11-14T05:31:47.136Z,101685.53
2022-11-14T05:34:34.673Z,101679.25
2022-11-14T05:37:22.327Z,101678.50
2022-11-14T05:40:10.972Z,101682.94
2022-11-14T05:43:00.039Z,101681.25
2022-11-14T05:45:47.893Z,101685.38
2022-11-14T05:48:35.564Z,101695.66
2022-11-14T05:51:23.543Z,101690.50
2022-11-14T05:54:11.023Z,101687.16
2022-11-14T05:56:58.439Z,101686.16
2022-11-14T05:59:47.300Z,101690.50
2022-11-14T06:02:34.953Z,101680.16
2022-11-14T06:05:22.592Z,101684.38
2022-11-14T06:08:10.272Z,101681.09
2022-11-14T06:11:02.353Z,101685.38
2022-11-14T06:13:50.370Z,101682.03
2022-11-14T06:16:39.197Z,101683.72
2022-11-14T06:19:27.097Z,101675.72
2022-11-14T06:22:14.535Z,101681.34
2022-11-14T06:25:01.962Z,101677.72
2022-11-14T06:27:49.577Z,101681.34
2022-11-14T06:30:38.300Z,101678.75
2022-11-14T06:33:27.360Z,101682.09
2022-11-14T06:36:15.751Z,101685.97
2022-11-14T06:39:03.316Z,101685.47
2022-11-14T06:41:50.955Z,101684.44
2022-11-14T06:44:38.413Z,101686.13
2022-11-14T06:47:25.920Z,101679.34
2022-11-14T06:50:15.009Z,101675.88
2022-11-14T06:53:02.547Z,101681.84
2022-11-14T06:55:57.630Z,101675.78
2022-11-14T06:58:46.992Z,101680.16
2022-11-14T07:01:34.532Z,101682.84
2022-11-14T07:04:22.000Z,101692.44
2022-11-14T07:07:10.912Z,101692.59
2022-11-14T07:09:58.859Z,101682.06
2022-11-14T07:12:46.623Z,101685.63
2022-11-14T07:15:34.081Z,101680.91
2022-11-14T07:18:22.695Z,101688.91
2022-11-14T07:21:13.180Z,101693.28
2022-11-14T07:24:02.077Z,101692.38
2022-11-14T07:26:49.968Z,101696.06
2022-11-14T07:29:37.589Z,101696.13
2022-11-14T07:32:25.388Z,101684.25
2022-11-14T07:35:12.863Z,101690.41
2022-11-14T07:38:04.766Z,101690.25
2022-11-14T07:40:59.912Z,101692.47
2022-11-14T07:43:47.976Z,101695.84
2022-11-14T07:46:35.688Z,101699.44
2022-11-14T07:49:23.128Z,101698.09
2022-11-14T07:52:10.684Z,101692.63
2022-11-14T07:54:58.312Z,101699.59
2022-11-14T07:57:49.597Z,101694.41
2022-11-14T08:00:37.385Z,101691.34
2022-11-14T08:03:24.869Z,101677.09
2022-11-14T08:06:14.426Z,101686.25
2022-11-14T08:09:02.340Z,101680.09
2022-11-14T08:11:49.913Z,101682.38
2022-11-14T08:14:38.768Z,101687.44
2022-11-14T08:17:26.879Z,101684.16
2022-11-14T08:20:14.783Z,101670.28
2022-11-14T08:23:07.083Z,101678.03
2022-11-14T08:25:55.052Z,101680.75
2022-11-14T08:28:42.953Z,101668.66
2022-11-14T08:31:32.353Z,101671.94
2022-11-14T08:34:20.865Z,101667.59
2022-11-14T08:37:08.494Z,101647.06
2022-11-14T08:39:55.979Z,101648.53
2022-11-14T08:42:43.610Z,101652.47
2022-11-14T08:45:31.590Z,101665.00
2022-11-14T08:48:20.390Z,101667.41
2022-11-14T08:51:08.815Z,101666.63
2022-11-14T08:53:56.601Z,101674.84
2022-11-14T08:56:44.125Z,101670.78
2022-11-14T08:59:31.652Z,101654.78
2022-11-14T09:02:19.186Z,101652.69
2022-11-14T09:05:09.553Z,101658.06
2022-11-14T09:07:57.203Z,101656.16
2022-11-14T09:10:45.158Z,101650.22
2022-11-14T09:13:34.742Z,101639.94
2022-11-14T09:16:22.118Z,101641.88
2022-11-14T09:19:09.743Z,101642.13
2022-11-14T09:21:58.905Z,101648.38
2022-11-14T09:24:49.335Z,101648.13
2022-11-14T09:27:36.901Z,101648.69
2022-11-14T09:30:24.726Z,101653.63
2022-11-14T09:33:12.530Z,101644.09
2022-11-14T09:36:00.228Z,101645.34
2022-11-14T09:38:50.006Z,101642.50
2022-11-14T09:41:54.196Z,101634.69
2022-11-14T09:44:55.758Z,101637.13
2022-11-14T09:47:45.867Z,101634.00
2022-11-14T09:50:38.048Z,101632.31
2022-11-14T09:53:33.710Z,101631.34
2022-11-14T09:56:26.218Z,101629.66
2022-11-14T09:59:15.161Z,101621.47
2022-11-14T10:02:11.917Z,101610.56
2022-11-14T10:05:12.140Z,101610.38
2022-11-14T10:08:14.410Z,101621.59
2022-11-14T10:11:09.005Z,101620.72
2022-11-14T10:14:33.327Z,101619.88
2022-11-14T10:17:38.307Z,101611.16
2022-11-14T10:20:32.375Z,101611.16
2022-11-14T10:23:35.313Z,101606.78
2022-11-14T10:26:30.977Z,101602.47
2022-11-14T10:29:59.413Z,101590.53
2022-11-14T10:33:06.146Z,101588.31
2022-11-14T10:36:01.766Z,101584.50
2022-11-14T10:38:55.235Z,101574.94
2022-11-14T10:42:04.540Z,101566.41
2022-11-14T10:45:02.191Z,101563.78
2022-11-14T10:47:53.479Z,101564.19
2022-11-14T10:50:49.954Z,101563.28
2022-11-14T10:53:51.211Z,101554.25
2022-11-14T10:56:47.933Z,101549.13
2022-11-14T10:59:36.346Z,101549.44
2022-11-14T11:02:25.255Z,101541.88
2022-11-14T11:05:17.319Z,101543.47
2022-11-14T11:08:42.485Z,101538.63
2022-11-14T11:11:31.120Z,101533.66
2022-11-14T11:14:20.171Z,101530.78
2022-11-14T11:17:20.571Z,101533.41
2022-11-14T11:20:30.981Z,101513.38
2022-11-14T11:23:23.017Z,101509.81
2022-11-14T11:26:19.354Z,101497.63
2022-11-14T11:29:16.102Z,101493.75
2022-11-14T11:32:03.830Z,101478.13
2022-11-14T11:34:53.441Z,101476.75
2022-11-14T11:37:54.530Z,101471.66
2022-11-14T11:40:44.254Z,101465.59
2022-11-14T11:43:40.004Z,101459.38
2022-11-14T11:46:34.660Z,101466.22
2022-11-14T11:49:35.703Z,101451.09
2022-11-14T11:52:32.494Z,101438.25
2022-11-14T11:55:26.670Z,101425.81
2022-11-14T11:58:22.476Z,101427.91
2022-11-14T12:01:12.842Z,101425.28
2022-11-14T12:04:04.055Z,101428.13
2022-11-14T12:06:59.860Z,101434.53
2022-11-14T12:10:09.832Z,101412.66
2022-11-14T12:13:35.490Z,101399.88
2022-11-14T12:16:55.061Z,101412.97
2022-11-14T12:20:03.002Z,101434.53
2022-11-14T12:23:11.679Z,101442.06
2022-11-14T12:26:14.638Z,101441.44
2022-11-14T12:29:25.179Z,101450.84
2022-11-14T12:32:16.798Z,101448.75
2022-11-14T12:35:09.005Z,101452.94
2022-11-14T12:37:59.116Z,101454.00
2022-11-14T12:40:53.454Z,101466.44
2022-11-14T12:43:44.131Z,101455.56
2022-11-14T12:47:12.598Z,101438.50
2022-11-14T12:50:35.091Z,101444.78
2022-11-14T12:53:45.428Z,101432.53
2022-11-14T12:57:05.100Z,101428.44
2022-11-14T13:00:02.934Z,101414.28
2022-11-14T13:03:10.891Z,101413.19
2022-11-14T13:06:04.084Z,101419.13
2022-11-14T13:09:17.928Z,101421.66
2022-11-14T13:12:49.480Z,101415.44
2022-11-14T13:16:07.596Z,101411.50
2022-11-14T13:19:19.075Z,101416.28
2022-11-14T13:22:39.906Z,101413.34
2022-11-14T13:25:28.016Z,101398.03
2022-11-14T13:28:48.551Z,101399.16
2022-11-14T13:31:49.002Z,101389.69
2022-11-14T13:34:46.183Z,101384.63
2022-11-14T13:37:54.142Z,101382.28
2022-11-14T13:40:50.413Z,101384.75
2022-11-14T13:43:53.506Z,101384.41
2022-11-14T13:47:04.657Z,101391.56
2022-11-14T13:50:04.751Z,101395.16
2022-11-14T13:52:53.645Z,101394.28
2022-11-14T13:56:01.961Z,101396.31
2022-11-14T13:59:26.901Z,101406.16
2022-11-14T14:02:39.021Z,101400.44
2022-11-14T14:05:36.541Z,101390.13
2022-11-14T14:08:41.289Z,101392.31
2022-11-14T14:11:44.690Z,101381.50
2022-11-14T14:14:53.656Z,101370.38
2022-11-14T14:17:54.951Z,101376.63
2022-11-14T14:20:49.331Z,101377.03
2022-11-14T14:23:46.349Z,101373.50
2022-11-14T14:26:55.388Z,101376.16
2022-11-14T14:29:52.570Z,101381.25
2022-11-14T14:32:40.302Z,101372.88
2022-11-14T14:35:29.883Z,101376.56
2022-11-14T14:38:26.591Z,101387.31
2022-11-14T14:41:15.938Z,101387.94
2022-11-14T14:44:03.867Z,101386.09
2022-11-14T14:46:52.450Z,101385.97
2022-11-14T14:49:41.348Z,101384.81
2022-11-14T14:52:31.664Z,101376.53
2022-11-14T14:55:26.338Z,101365.34
2022-11-14T14:58:25.955Z,101370.34
2022-11-14T15:01:16.066Z,101361.44
2022-11-14T15:04:07.664Z,101363.19
2022-11-14T15:06:57.291Z,101363.38
2022-11-14T15:09:54.264Z,101347.47
2022-11-14T15:12:44.216Z,101342.97
2022-11-14T15:15:32.669Z,101346.81
2022-11-14T15:18:26.100Z,101352.13
2022-11-14T15:21:17.955Z,101348.34
2022-11-14T15:24:15.914Z,101338.94
2022-11-14T15:27:06.526Z,101341.91
2022-11-14T15:29:59.145Z,101335.72
2022-11-14T15:32:51.122Z,101324.56
2022-11-14T15:35:40.601Z,101331.41
2022-11-14T15:38:43.607Z,101335.69
2022-11-14T15:41:32.784Z,101331.59
2022-11-14T15:44:34.181Z,101337.75
2022-11-14T15:47:26.111Z,101331.63
2022-11-14T15:50:31.169Z,101334.72
2022-11-14T15:53:24.558Z,101335.44
2022-11-14T15:56:13.825Z,101335.66
2022-11-14T15:59:01.241Z,101328.19
2022-11-14T16:01:53.263Z,101331.69
2022-11-14T16:04:47.287Z,101334.44
2022-11-14T16:07:35.477Z,101327.53
2022-11-14T16:10:24.639Z,101326.25
2022-11-14T16:13:12.407Z,101325.00
2022-11-14T16:16:00.363Z,101314.34
2022-11-14T16:18:48.072Z,101316.38
2022-11-14T16:21:38.954Z,101313.22
2022-11-14T16:24:31.114Z,101306.84
2022-11-14T16:27:21.216Z,101310.56
2022-11-14T16:30:09.915Z,101308.41
2022-11-14T16:32:57.524Z,101316.78
2022-11-14T16:35:45.672Z,101316.50
2022-11-14T16:38:34.853Z,101304.75
2022-11-14T16:41:22.399Z,101303.38
2022-11-14T16:44:16.529Z,101304.31
2022-11-14T16:47:04.539Z,101299.53
2022-11-14T16:49:52.372Z,101297.31
2022-11-14T16:52:40.638Z,101295.84
2022-11-14T16:55:30.026Z,101295.38
2022-11-14T16:58:17.567Z,101296.09
2022-11-14T17:01:10.084Z,101290.63
2022-11-14T17:04:01.014Z,101286.25
2022-11-14T17:06:49.036Z,101291.25
2022-11-14T17:09:36.777Z,101294.91
2022-11-14T17:12:28.957Z,101285.69
2022-11-14T17:15:16.856Z,101284.00
2022-11-14T17:18:05.338Z,101282.44
2022-11-14T17:20:53.444Z,101280.66
2022-11-14T17:23:41.333Z,101283.38
2022-11-14T17:26:29.665Z,101277.91
2022-11-14T17:29:18.406Z,101286.91
2022-11-14T17:32:06.192Z,101278.63
2022-11-14T17:34:53.802Z,101271.66
2022-11-14T17:37:41.182Z,101277.59
2022-11-14T17:40:28.919Z,101279.66
2022-11-14T17:43:18.091Z,101271.19
2022-11-14T17:46:14.236Z,101274.44
2022-11-14T17:49:04.239Z,101268.22
2022-11-14T17:51:52.115Z,101266.88
2022-11-14T17:54:40.048Z,101262.63
2022-11-14T17:57:28.132Z,101261.25
2022-11-14T18:00:17.338Z,101261.59
2022-11-14T18:03:06.881Z,101261.97
2022-11-14T18:05:56.433Z,101252.28
2022-11-14T18:08:44.559Z,101244.59
2022-11-14T18:11:33.235Z,101247.19
2022-11-14T18:14:21.106Z,101249.69
2022-11-14T18:17:13.203Z,101242.78
2022-11-14T18:20:02.598Z,101242.72
2022-11-14T18:22:50.576Z,101246.34
2022-11-14T18:25:38.020Z,101242.91
2022-11-14T18:28:25.521Z,101250.44
2022-11-14T18:31:13.858Z,101253.16
2022-11-14T18:34:02.725Z,101225.03
2022-11-14T18:36:51.635Z,101225.13
2022-11-14T18:39:39.334Z,101229.03
2022-11-14T18:42:26.837Z,101221.69
2022-11-14T18:45:14.440Z,101218.16
2022-11-14T18:48:01.994Z,101222.06
2022-11-14T18:50:49.545Z,101221.56
2022-11-14T18:53:38.681Z,101227.28
2022-11-14T18:56:27.602Z,101217.78
2022-11-14T18:59:15.197Z,101208.94
2022-11-14T19:02:02.973Z,101204.47
2022-11-14T19:04:50.652Z,101198.53
2022-11-14T19:07:38.793Z,101201.94
2022-11-14T19:10:27.667Z,101201.03
2022-11-14T19:13:15.726Z,101207.34
2022-11-14T19:16:03.946Z,101194.59
2022-11-14T19:18:51.624Z,101188.56
2022-11-14T19:21:40.275Z,101186.25
2022-11-14T19:24:27.937Z,101199.19
2022-11-14T19:27:17.153Z,101195.34
2022-11-14T19:30:05.566Z,101198.78
2022-11-14T19:32:53.350Z,101193.78
2022-11-14T19:35:41.382Z,101194.06
2022-11-14T19:38:29.112Z,101197.88
2022-11-14T19:41:20.179Z,101184.66
2022-11-14T19:44:10.248Z,101181.13
2022-11-14T19:46:58.174Z,101180.75
2022-11-14T19:49:45.946Z,101175.53
2022-11-14T19:52:33.772Z,101180.47
2022-11-14T19:55:21.310Z,101177.22
2022-11-14T19:58:08.928Z,101181.03
2022-11-14T20:01:03.467Z,101181.97
2022-11-14T20:03:56.014Z,101178.22
2022-11-14T20:06:44.044Z,101177.88
2022-11-14T20:09:34.841Z,101175.09
2022-11-14T20:12:22.360Z,101178.00
2022-11-14T20:15:11.353Z,101163.34
2022-11-14T20:18:00.679Z,101168.25
2022-11-14T20:20:49.292Z,101167.78
2022-11-14T20:23:37.541Z,101154.47
2022-11-14T20:26:25.594Z,101157.19
2022-11-14T20:29:13.665Z,101148.63
2022-11-14T20:32:03.114Z,101148.44
2022-11-14T20:34:52.206Z,101138.69
2022-11-14T20:37:39.794Z,101126.13
2022-11-14T20:40:27.970Z,101131.53
2022-11-14T20:43:16.211Z,101140.72
2022-11-14T20:46:06.834Z,101145.00
2022-11-14T20:48:54.948Z,101145.34
2022-11-14T20:51:44.191Z,101136.06
2022-11-14T20:54:31.678Z,101142.75
2022-11-14T20:57:19.287Z,101134.81
2022-11-14T21:00:09.053Z,101133.44
2022-11-14T21:02:56.968Z,101135.78
2022-11-14T21:05:44.951Z,101131.94
2022-11-14T21:08:36.351Z,101124.88
2022-11-14T21:11:23.829Z,101124.59
2022-11-14T21:14:12.847Z,101114.84
2022-11-14T21:17:00.850Z,101107.81
2022-11-14T21:19:48.570Z,101099.53
2022-11-14T21:22:37.329Z,101085.50
2022-11-14T21:25:26.778Z,101080.50
2022-11-14T21:28:14.686Z,101080.88
2022-11-14T21:31:03.588Z,101082.34
2022-11-14T21:33:53.710Z,101075.09
2022-11-14T21:36:46.268Z,101067.50
2022-11-14T21:39:34.481Z,101064.19
2022-11-14T21:42:25.095Z,101066.00
2022-11-14T21:45:13.172Z,101058.72
2022-11-14T21:48:00.964Z,101065.88
2022-11-14T21:50:48.733Z,101062.16
2022-11-14T21:53:36.835Z,101059.69
2022-11-14T21:56:26.245Z,101058.34
2022-11-14T21:59:21.169Z,101067.50
2022-11-14T22:02:30.386Z,101059.84
2022-11-14T22:05:18.497Z,101049.16
2022-11-14T22:08:06.610Z,101053.34
2022-11-14T22:10:54.035Z,101056.69
2022-11-14T22:13:41.779Z,101058.34
2022-11-14T22:16:30.887Z,101063.41
2022-11-14T22:19:18.946Z,101057.34
2022-11-14T22:22:06.857Z,101054.63
2022-11-14T22:24:54.340Z,101048.91
2022-11-14T22:27:41.988Z,101045.91
2022-11-14T22:30:29.443Z,101036.34
2022-11-14T22:33:18.296Z,101041.72
2022-11-14T22:36:08.324Z,101043.22
2022-11-14T22:38:57.368Z,101040.06
2022-11-14T22:41:45.366Z,101032.06
2022-11-14T22:44:33.171Z,101026.94
2022-11-14T22:47:21.262Z,101025.47
2022-11-14T22:50:11.153Z,101024.09
2022-11-14T22:52:58.743Z,101018.88
2022-11-14T22:55:50.257Z,101013.38
2022-11-14T22:58:41.092Z,101018.69
2022-11-14T23:01:31.501Z,101008.81
2022-11-14T23:04:19.247Z,101000.88
2022-11-14T23:07:09.280Z,100997.03
2022-11-14T23:09:56.850Z,100992.22
2022-11-14T23:12:44.421Z,100989.78
2022-11-14T23:15:32.161Z,100984.25
2022-11-14T23:18:19.956Z,100990.34
2022-11-14T23:21:08.365Z,100984.31
2022-11-14T23:23:58.392Z,100988.88
2022-11-14T23:26:46.434Z,100985.22
2022-11-14T23:29:34.158Z,101002.56
2022-11-14T23:32:21.644Z,100999.41
2022-11-14T23:35:09.715Z,100993.31
2022-11-14T23:37:57.565Z,100992.13
2022-11-14T23:40:52.255Z,100989.03
2022-11-14T23:43:39.721Z,100989.97
2022-11-14T23:46:27.384Z,100977.97
2022-11-14T23:49:15.102Z,100975.22
2022-11-14T23:52:02.676Z,100969.63
2022-11-14T23:54:50.404Z,100976.66
2022-11-14T23:57:39.260Z,100972.63
